Time;durP1;ratioP1;P1;durP2;ratioP2;P2;SDS_P1;SDS_P2;PMS_P1;PMS_P2;Temp;Humidity;BMP_temperature;BMP_pressure;BME280_temperature;BME280_humidity;BME280_pressure;Samples;Min_cycle;Max_cycle;Signal;HPM_P1;HPM_P2
2021/03/26 00:00:52;;;;;;;18.87;16.90;;;5.40;99.90;;;;;;5071849;28;20447;-64
2021/03/26 00:03:23;;;;;;;20.23;15.67;;;5.30;99.90;;;;;;5072047;28;20791;-64
2021/03/26 00:05:53;;;;;;;18.93;15.90;;;5.30;99.90;;;;;;5072106;28;20481;-64
2021/03/26 00:08:19;;;;;;;15.83;13.90;;;5.30;99.90;;;;;;5072083;28;20422;-64
2021/03/26 00:10:45;;;;;;;15.87;14.20;;;5.20;99.90;;;;;;5071693;28;20429;-64
2021/03/26 00:13:11;;;;;;;25.77;19.30;;;5.10;99.90;;;;;;5071913;28;20229;-63
2021/03/26 00:15:37;;;;;;;21.87;16.97;;;5.20;99.90;;;;;;5071944;28;20397;-63
2021/03/26 00:18:04;;;;;;;24.27;21.00;;;5.10;99.90;;;;;;5071745;28;20254;-64
2021/03/26 00:20:29;;;;;;;23.77;19.70;;;5.10;99.90;;;;;;5071575;28;20934;-63
2021/03/26 00:22:55;;;;;;;27.03;20.93;;;5.20;99.90;;;;;;5071828;28;20485;-64
2021/03/26 00:25:20;;;;;;;26.60;21.43;;;5.30;99.90;;;;;;5071905;28;20778;-64
2021/03/26 00:27:46;;;;;;;18.20;16.13;;;5.30;99.90;;;;;;5071850;28;20175;-63
2021/03/26 00:30:13;;;;;;;26.00;22.97;;;5.30;99.90;;;;;;5071823;28;20163;-63
2021/03/26 00:32:39;;;;;;;25.13;19.97;;;5.40;99.90;;;;;;5071531;28;20253;-63
2021/03/26 00:35:11;;;;;;;21.53;19.07;;;5.40;99.90;;;;;;5071951;28;20460;-63
2021/03/26 00:37:37;;;;;;;21.03;18.50;;;5.30;99.90;;;;;;5071632;28;20476;-63
2021/03/26 00:40:05;;;;;;;21.37;17.30;;;5.30;99.90;;;;;;5071598;28;20416;-64
2021/03/26 00:42:30;;;;;;;20.50;18.50;;;5.20;99.90;;;;;;5074908;28;20977;-63
2021/03/26 00:44:56;;;;;;;18.80;16.40;;;5.10;99.90;;;;;;5075869;28;20413;-64
2021/03/26 00:47:22;;;;;;;23.60;17.80;;;5.10;99.90;;;;;;5075945;28;20558;-63
2021/03/26 00:49:47;;;;;;;31.10;22.20;;;5.10;99.90;;;;;;5075667;28;20237;-63
2021/03/26 00:52:13;;;;;;;29.33;23.57;;;5.20;99.90;;;;;;5075284;28;20220;-63
2021/03/26 00:54:39;;;;;;;28.43;22.53;;;5.30;99.90;;;;;;5075662;28;20163;-63
2021/03/26 00:57:05;;;;;;;29.60;23.63;;;5.30;99.90;;;;;;5075617;28;20463;-63
2021/03/26 00:59:31;;;;;;;32.93;22.90;;;5.40;99.90;;;;;;5075051;28;20182;-63
2021/03/26 01:01:56;;;;;;;26.53;21.93;;;5.30;99.90;;;;;;5075035;28;20452;-63
2021/03/26 01:04:22;;;;;;;29.07;21.67;;;5.20;99.90;;;;;;5075408;28;20183;-63
2021/03/26 01:06:47;;;;;;;30.43;25.80;;;5.20;99.90;;;;;;5075352;28;20246;-63
2021/03/26 01:09:13;;;;;;;25.90;20.83;;;5.20;99.90;;;;;;5075273;28;20574;-63
2021/03/26 01:11:40;;;;;;;27.93;21.73;;;5.10;99.90;;;;;;5075014;28;20164;-64
2021/03/26 01:14:11;;;;;;;26.97;22.53;;;5.10;99.90;;;;;;5075148;28;20233;-63
2021/03/26 01:16:37;;;;;;;23.83;21.23;;;5.10;99.90;;;;;;5075256;28;20410;-63
2021/03/26 01:19:03;;;;;;;27.27;20.97;;;5.00;99.90;;;;;;5075126;28;20404;-63
2021/03/26 01:21:32;;;;;;;23.43;20.33;;;5.10;99.90;;;;;;5074862;28;20341;-63
2021/03/26 01:23:58;;;;;;;28.70;22.83;;;5.00;99.90;;;;;;5074994;28;20888;-63
2021/03/26 01:26:24;;;;;;;34.37;24.37;;;5.00;99.90;;;;;;5074900;28;20409;-63
2021/03/26 01:28:50;;;;;;;35.63;26.13;;;5.00;99.90;;;;;;5074887;28;20409;-63
2021/03/26 01:31:16;;;;;;;31.20;25.10;;;4.90;99.90;;;;;;5074728;28;20406;-63
2021/03/26 01:33:42;;;;;;;29.60;24.20;;;4.90;99.90;;;;;;5075164;28;20476;-63
2021/03/26 01:36:08;;;;;;;29.67;23.10;;;4.90;99.90;;;;;;5074875;28;20405;-63
2021/03/26 01:38:34;;;;;;;29.77;24.50;;;4.90;99.90;;;;;;5074756;28;20705;-63
2021/03/26 01:41:04;;;;;;;29.23;22.90;;;4.90;99.90;;;;;;5074261;28;20881;-63
2021/03/26 01:43:36;;;;;;;34.20;26.60;;;4.90;99.90;;;;;;5074605;28;20471;-63
2021/03/26 01:46:03;;;;;;;39.10;26.57;;;4.90;99.90;;;;;;5074657;28;20397;-63
2021/03/26 01:48:35;;;;;;;32.77;26.93;;;5.00;99.90;;;;;;5074471;28;20405;-63
2021/03/26 01:51:05;;;;;;;37.00;25.73;;;5.00;99.90;;;;;;5074281;28;20435;-63
2021/03/26 01:53:31;;;;;;;33.10;25.07;;;4.90;99.90;;;;;;5074423;28;20805;-63
2021/03/26 01:55:59;;;;;;;38.43;25.70;;;5.00;99.90;;;;;;5074432;28;20412;-63
2021/03/26 01:58:30;;;;;;;30.20;23.20;;;4.90;99.90;;;;;;5074166;28;20479;-63
2021/03/26 02:00:59;;;;;;;26.00;21.43;;;4.90;99.90;;;;;;5073957;28;20456;-63
2021/03/26 02:03:35;;;;;;;27.43;19.90;;;4.90;99.90;;;;;;5074212;28;20438;-63
2021/03/26 02:06:07;;;;;;;32.60;26.00;;;4.90;99.90;;;;;;5074446;28;20480;-63
2021/03/26 02:08:35;;;;;;;31.90;23.97;;;4.90;99.90;;;;;;5074262;28;20426;-63
2021/03/26 02:11:13;;;;;;;26.60;21.60;;;4.90;99.90;;;;;;5073977;28;20749;-63
2021/03/26 02:13:39;;;;;;;30.63;23.20;;;4.90;99.90;;;;;;5074557;28;20751;-63
2021/03/26 02:16:07;;;;;;;33.30;26.47;;;4.80;99.90;;;;;;5074222;28;20905;-63
2021/03/26 02:18:37;;;;;;;27.90;21.57;;;4.90;99.90;;;;;;5074066;28;20496;-63
2021/03/26 02:21:05;;;;;;;34.53;25.10;;;4.90;99.90;;;;;;5073633;28;20870;-63
2021/03/26 02:23:33;;;;;;;33.10;22.80;;;5.00;99.90;;;;;;5073864;28;20560;-63
2021/03/26 02:26:00;;;;;;;34.47;24.53;;;5.10;99.90;;;;;;5073909;28;20413;-63
2021/03/26 02:28:27;;;;;;;34.53;25.37;;;5.20;99.90;;;;;;5073896;28;20459;-63
2021/03/26 02:30:58;;;;;;;27.50;23.40;;;5.20;99.90;;;;;;5073619;28;20397;-63
2021/03/26 02:33:25;;;;;;;30.03;23.70;;;5.20;99.90;;;;;;5073847;28;20479;-63
2021/03/26 02:36:11;;;;;;;32.00;23.07;;;5.20;99.90;;;;;;5073781;28;20405;-63
2021/03/26 02:38:39;;;;;;;30.13;22.87;;;5.30;99.90;;;;;;5073656;28;20406;-63
2021/03/26 02:41:29;;;;;;;30.57;22.43;;;5.20;99.90;;;;;;5073289;28;20402;-63
2021/03/26 02:44:18;;;;;;;23.57;19.83;;;5.20;99.90;;;;;;5073495;28;20414;-63
2021/03/26 02:47:05;;;;;;;32.30;27.37;;;5.30;99.90;;;;;;5073640;28;20587;-63
2021/03/26 02:50:24;;;;;;;29.10;22.03;;;5.40;99.90;;;;;;5073494;28;20394;-63
2021/03/26 02:53:18;;;;;;;33.47;25.87;;;5.30;99.90;;;;;;5070866;28;20437;-63
2021/03/26 02:56:01;;;;;;;29.10;22.40;;;5.40;99.90;;;;;;5070681;28;20460;-63
2021/03/26 02:58:31;;;;;;;28.10;23.70;;;5.30;99.90;;;;;;5072817;28;20576;-63
2021/03/26 03:01:05;;;;;;;33.33;22.93;;;5.40;99.90;;;;;;5072945;28;20401;-63
2021/03/26 03:03:34;;;;;;;28.40;21.37;;;5.40;99.90;;;;;;5072546;28;20826;-63
2021/03/26 03:06:08;;;;;;;29.87;22.93;;;5.30;99.90;;;;;;5073159;28;20406;-63
2021/03/26 03:08:36;;;;;;;26.63;22.67;;;5.40;99.90;;;;;;5072990;28;20437;-63
2021/03/26 03:11:38;;;;;;;32.73;22.93;;;5.30;99.90;;;;;;5072814;28;20779;-63
2021/03/26 03:14:08;;;;;;;33.50;25.00;;;5.40;99.90;;;;;;5073002;28;20501;-63
2021/03/26 03:16:48;;;;;;;33.73;25.03;;;5.50;99.90;;;;;;5072941;28;20477;-62
2021/03/26 03:19:29;;;;;;;33.80;24.60;;;5.40;99.90;;;;;;5072777;28;20397;-63
2021/03/26 03:22:10;;;;;;;34.60;23.70;;;5.40;99.90;;;;;;5072423;28;20825;-63
2021/03/26 03:24:41;;;;;;;29.13;23.53;;;5.50;99.90;;;;;;5072895;28;20428;-63
2021/03/26 03:27:31;;;;;;;34.53;25.77;;;5.40;99.90;;;;;;5072767;28;20390;-63
2021/03/26 03:30:05;;;;;;;36.50;23.77;;;5.50;99.90;;;;;;5072714;28;20447;-63
2021/03/26 03:32:52;;;;;;;27.63;23.00;;;5.40;99.90;;;;;;5072346;28;20503;-63
2021/03/26 03:35:33;;;;;;;31.83;24.97;;;5.40;99.90;;;;;;5072620;28;20408;-63
2021/03/26 03:38:07;;;;;;;32.07;25.93;;;5.40;99.90;;;;;;5072449;28;20424;-63
2021/03/26 03:41:05;;;;;;;32.00;24.57;;;5.40;99.90;;;;;;5072207;28;20416;-63
2021/03/26 03:43:49;;;;;;;31.10;24.93;;;5.40;99.90;;;;;;5071863;28;20465;-63
2021/03/26 03:46:25;;;;;;;30.47;25.27;;;5.40;99.90;;;;;;5072398;28;20756;-63
2021/03/26 03:48:58;;;;;;;32.97;25.00;;;5.50;99.90;;;;;;5072282;28;20420;-62
2021/03/26 03:51:52;;;;;;;32.73;24.30;;;5.50;99.90;;;;;;5072026;28;20398;-63
2021/03/26 03:54:23;;;;;;;33.10;26.17;;;5.50;99.90;;;;;;5071809;28;20785;-63
2021/03/26 03:57:00;;;;;;;30.07;24.47;;;5.40;99.90;;;;;;5072369;28;20421;-63
2021/03/26 03:59:44;;;;;;;38.83;27.40;;;5.40;99.90;;;;;;5072047;28;20417;-63
2021/03/26 04:02:52;;;;;;;35.23;25.37;;;5.40;99.90;;;;;;5071795;28;20455;-63
2021/03/26 04:05:43;;;;;;;33.53;24.83;;;5.40;99.90;;;;;;5072234;28;20476;-63
2021/03/26 04:08:26;;;;;;;31.77;24.57;;;5.40;99.90;;;;;;5072122;28;20488;-62
2021/03/26 04:11:24;;;;;;;38.17;24.27;;;5.40;99.90;;;;;;5071837;28;20405;-63
2021/03/26 04:14:13;;;;;;;34.13;24.77;;;5.40;99.90;;;;;;5071357;28;20506;-63
2021/03/26 04:16:41;;;;;;;34.83;25.90;;;5.40;99.90;;;;;;5070742;28;20425;-63
2021/03/26 04:19:31;;;;;;;36.70;26.67;;;5.50;99.90;;;;;;5071817;28;21104;-63
2021/03/26 04:22:20;;;;;;;35.50;26.30;;;5.40;99.90;;;;;;5071655;28;20449;-63
2021/03/26 04:25:09;;;;;;;35.07;25.43;;;5.40;99.90;;;;;;5071958;28;20403;-63
2021/03/26 04:27:40;;;;;;;36.90;27.27;;;5.40;99.90;;;;;;5071901;28;20432;-63
2021/03/26 04:30:15;;;;;;;31.70;23.50;;;5.50;99.90;;;;;;5071726;28;20455;-63
2021/03/26 04:32:41;;;;;;;34.60;24.47;;;5.40;99.90;;;;;;5071589;28;20466;-62
2021/03/26 04:35:10;;;;;;;33.30;25.10;;;5.40;99.90;;;;;;5071810;28;20776;-62
2021/03/26 04:38:10;;;;;;;29.47;22.33;;;5.30;99.90;;;;;;5071697;28;20439;-63
2021/03/26 04:40:37;;;;;;;27.80;21.50;;;5.40;99.90;;;;;;5071459;28;20378;-62
2021/03/26 04:43:22;;;;;;;36.40;24.57;;;5.40;99.90;;;;;;5071629;28;21082;-63
2021/03/26 04:45:55;;;;;;;35.80;24.50;;;5.40;99.90;;;;;;5071777;28;20806;-63
2021/03/26 04:48:38;;;;;;;33.87;22.10;;;5.40;99.90;;;;;;5071601;28;20398;-62
2021/03/26 04:51:39;;;;;;;30.73;23.90;;;5.40;99.90;;;;;;5071418;28;20764;-63
2021/03/26 04:54:26;;;;;;;33.00;23.53;;;5.40;99.90;;;;;;5071650;28;20430;-63
2021/03/26 04:57:04;;;;;;;32.07;23.27;;;5.40;99.90;;;;;;5071622;28;20889;-63
2021/03/26 04:59:35;;;;;;;38.63;28.57;;;5.30;99.90;;;;;;5071495;28;20424;-62
2021/03/26 05:02:04;;;;;;;41.37;28.73;;;5.30;99.90;;;;;;5071201;28;20540;-62
2021/03/26 05:04:36;;;;;;;39.07;27.57;;;5.30;99.90;;;;;;5071458;28;20424;-63
2021/03/26 05:07:11;;;;;;;35.77;25.37;;;5.40;99.90;;;;;;5071582;28;20937;-63
2021/03/26 05:09:44;;;;;;;37.67;26.97;;;5.40;99.90;;;;;;5071395;28;20790;-62
2021/03/26 05:12:17;;;;;;;38.33;28.13;;;5.30;99.90;;;;;;5071070;28;20409;-63
2021/03/26 05:14:49;;;;;;;40.37;28.40;;;5.30;99.90;;;;;;5071351;28;20449;-63
2021/03/26 05:18:12;;;;;;;36.13;27.17;;;5.30;99.90;;;;;;5071505;28;20397;-63
2021/03/26 05:21:02;;;;;;;40.00;28.30;;;5.30;99.90;;;;;;5068790;28;20449;-63
2021/03/26 05:23:53;;;;;;;38.07;26.50;;;5.40;99.90;;;;;;5071344;28;20422;-63
2021/03/26 05:26:19;;;;;;;39.10;27.10;;;5.30;99.90;;;;;;5070758;28;20401;-63
2021/03/26 05:28:47;;;;;;;39.83;28.77;;;5.40;99.90;;;;;;5074915;28;20397;-63
2021/03/26 05:31:45;;;;;;;39.50;30.20;;;5.40;99.90;;;;;;5074820;28;20487;-62
2021/03/26 05:34:44;;;;;;;40.47;27.87;;;5.40;99.90;;;;;;5074787;28;20474;-63
2021/03/26 05:37:22;;;;;;;43.10;24.70;;;5.40;99.90;;;;;;5074814;28;20397;-63
2021/03/26 05:40:13;;;;;;;36.93;27.10;;;5.40;99.90;;;;;;5074930;28;20817;-63
2021/03/26 05:42:52;;;;;;;32.57;25.03;;;5.40;99.90;;;;;;5074305;28;20882;-62
2021/03/26 05:45:44;;;;;;;37.93;26.40;;;5.50;99.90;;;;;;5074809;28;20425;-63
2021/03/26 05:48:15;;;;;;;35.07;25.57;;;5.40;99.90;;;;;;5074643;28;20421;-63
2021/03/26 05:51:17;;;;;;;37.33;28.50;;;5.40;99.90;;;;;;5074376;28;20393;-63
2021/03/26 05:54:09;;;;;;;39.50;26.77;;;5.50;99.90;;;;;;5074536;28;20440;-63
2021/03/26 05:56:46;;;;;;;33.00;22.80;;;5.50;99.90;;;;;;5074646;28;20467;-63
2021/03/26 05:59:42;;;;;;;36.53;24.83;;;5.50;99.90;;;;;;5074480;28;20779;-62
2021/03/26 06:02:29;;;;;;;28.73;23.07;;;5.60;99.90;;;;;;5074099;28;20461;-63
2021/03/26 06:05:06;;;;;;;34.63;25.23;;;5.60;99.90;;;;;;5074491;28;20765;-63
2021/03/26 06:07:56;;;;;;;28.37;22.00;;;5.50;99.90;;;;;;5074378;28;20917;-62
2021/03/26 06:10:42;;;;;;;36.03;24.30;;;5.60;99.90;;;;;;5074149;28;20394;-62
2021/03/26 06:13:52;;;;;;;30.57;22.03;;;5.60;99.90;;;;;;5073989;28;20442;-63
2021/03/26 06:16:34;;;;;;;28.50;23.20;;;5.60;99.90;;;;;;5072615;28;20421;-63
2021/03/26 06:19:22;;;;;;;29.50;22.17;;;5.70;99.90;;;;;;5074153;28;20496;-63
2021/03/26 06:22:09;;;;;;;28.03;20.20;;;5.80;99.90;;;;;;5073772;28;20475;-62
2021/03/26 06:24:49;;;;;;;33.80;23.30;;;5.80;99.90;;;;;;5074035;28;20455;-63
2021/03/26 06:27:32;;;;;;;27.70;20.00;;;5.90;99.90;;;;;;5074014;28;20393;-63
2021/03/26 06:30:22;;;;;;;28.60;21.10;;;5.90;99.90;;;;;;5073898;28;20393;-63
2021/03/26 06:33:06;;;;;;;26.37;19.27;;;6.00;99.90;;;;;;5073598;28;20460;-63
2021/03/26 06:35:52;;;;;;;24.80;19.87;;;6.10;99.90;;;;;;5074055;28;20813;-63
2021/03/26 06:38:56;;;;;;;27.70;21.90;;;6.10;99.90;;;;;;5072979;28;20409;-63
2021/03/26 06:41:21;;;;;;;23.47;19.30;;;6.20;99.90;;;;;;5073270;28;20857;-63
2021/03/26 06:44:05;;;;;;;27.83;19.80;;;6.20;99.90;;;;;;5073591;28;20425;-63
2021/03/26 06:46:58;;;;;;;32.50;21.47;;;6.20;99.90;;;;;;5073561;28;20648;-63
2021/03/26 06:49:48;;;;;;;31.13;21.80;;;6.30;99.90;;;;;;5073531;28;20807;-63
2021/03/26 06:52:32;;;;;;;29.97;22.00;;;6.30;99.90;;;;;;5073158;28;20410;-63
2021/03/26 06:55:35;;;;;;;27.90;20.87;;;6.50;99.90;;;;;;5073575;28;20413;-63
2021/03/26 06:58:29;;;;;;;28.53;21.90;;;6.50;99.90;;;;;;5072236;28;20925;-63
2021/03/26 07:01:25;;;;;;;29.67;22.70;;;6.60;99.90;;;;;;5073006;28;20402;-63
2021/03/26 07:04:19;;;;;;;28.40;20.73;;;6.70;99.90;;;;;;5073273;28;20949;-63
2021/03/26 07:07:23;;;;;;;33.03;24.70;;;6.70;99.90;;;;;;5073268;28;20406;-63
2021/03/26 07:10:26;;;;;;;26.90;21.63;;;6.80;99.90;;;;;;5073131;28;20520;-63
2021/03/26 07:13:12;;;;;;;29.40;22.03;;;6.90;99.90;;;;;;5073181;28;20421;-63
2021/03/26 07:15:57;;;;;;;25.20;21.70;;;7.00;99.90;;;;;;5073068;28;20434;-63
2021/03/26 07:18:59;;;;;;;30.27;21.60;;;7.00;99.90;;;;;;5072936;28;20425;-62
2021/03/26 07:21:50;;;;;;;33.43;23.70;;;7.10;99.90;;;;;;5072532;28;20448;-63
2021/03/26 07:25:00;;;;;;;31.13;20.30;;;7.10;99.90;;;;;;5072854;28;20422;-63
2021/03/26 07:27:51;;;;;;;30.50;23.13;;;7.20;99.90;;;;;;5072660;28;20413;-63
2021/03/26 07:30:27;;;;;;;34.00;21.13;;;7.30;99.90;;;;;;5072532;28;20760;-63
2021/03/26 07:33:04;;;;;;;29.73;23.60;;;7.40;99.90;;;;;;5072670;28;20420;-63
2021/03/26 07:35:39;;;;;;;30.27;19.40;;;7.50;99.90;;;;;;5072642;28;20402;-63
2021/03/26 07:38:38;;;;;;;25.43;19.47;;;7.50;99.90;;;;;;5072588;28;20407;-63
2021/03/26 07:41:34;;;;;;;26.37;19.77;;;7.60;99.90;;;;;;5072238;28;20772;-63
2021/03/26 07:44:27;;;;;;;19.43;17.33;;;7.80;99.90;;;;;;5072470;28;20425;-63
2021/03/26 07:47:27;;;;;;;24.10;19.13;;;7.80;99.90;;;;;;5072508;28;20399;-63
2021/03/26 07:50:37;;;;;;;23.30;16.80;;;8.00;99.90;;;;;;5072216;28;20755;-63
2021/03/26 07:53:29;;;;;;;21.30;16.77;;;8.00;99.90;;;;;;5072426;28;20432;-63
2021/03/26 07:56:15;;;;;;;22.00;15.67;;;8.20;99.90;;;;;;5072389;28;20405;-63
2021/03/26 07:59:18;;;;;;;22.90;15.67;;;8.20;99.90;;;;;;5072115;28;20441;-63
2021/03/26 08:02:21;;;;;;;21.67;17.27;;;8.30;99.90;;;;;;5071907;28;20854;-63
2021/03/26 08:04:57;;;;;;;18.70;14.30;;;8.40;99.90;;;;;;5072122;28;20499;-63
2021/03/26 08:07:57;;;;;;;19.77;17.17;;;8.50;99.90;;;;;;5072215;28;20402;-63
2021/03/26 08:10:48;;;;;;;16.47;14.60;;;8.60;99.90;;;;;;5072003;28;20776;-63
2021/03/26 08:13:36;;;;;;;18.27;15.00;;;8.70;99.90;;;;;;5072051;28;20439;-63
2021/03/26 08:16:29;;;;;;;20.00;15.13;;;8.80;99.90;;;;;;5071110;28;20433;-62
2021/03/26 08:19:22;;;;;;;19.27;14.70;;;8.90;99.90;;;;;;5072010;28;20474;-62
2021/03/26 08:22:07;;;;;;;16.93;13.80;;;9.10;99.90;;;;;;5071676;28;20562;-62
2021/03/26 08:24:57;;;;;;;19.10;13.03;;;9.10;99.90;;;;;;5072003;28;20466;-62
2021/03/26 08:27:26;;;;;;;15.07;11.97;;;9.30;99.90;;;;;;5071826;28;20404;-63
2021/03/26 08:29:57;;;;;;;13.73;11.17;;;9.50;99.90;;;;;;5071743;28;20409;-62
2021/03/26 08:32:50;;;;;;;17.10;12.87;;;9.60;99.90;;;;;;5071513;28;20439;-63
2021/03/26 08:35:28;;;;;;;14.23;11.50;;;9.70;99.90;;;;;;5071916;28;20401;-62
2021/03/26 08:38:05;;;;;;;13.60;11.67;;;9.90;99.70;;;;;;5071757;28;20405;-62
2021/03/26 08:40:40;;;;;;;11.47;9.83;;;10.00;98.70;;;;;;5071593;28;20405;-62
2021/03/26 08:43:09;;;;;;;14.90;13.40;;;10.20;97.90;;;;;;5071572;28;20460;-62
2021/03/26 08:45:41;;;;;;;12.70;10.73;;;10.20;97.20;;;;;;5071776;28;20394;-62
2021/03/26 08:48:25;;;;;;;11.43;10.20;;;10.40;97.10;;;;;;5071708;28;20455;-62
2021/03/26 08:51:15;;;;;;;12.40;9.43;;;10.50;96.80;;;;;;5071466;28;20397;-63
2021/03/26 08:54:05;;;;;;;14.20;10.40;;;10.70;96.50;;;;;;5071688;28;20546;-62
2021/03/26 08:56:40;;;;;;;11.33;9.80;;;10.80;95.90;;;;;;5071676;28;20397;-62
2021/03/26 08:59:54;;;;;;;11.93;8.87;;;10.90;95.90;;;;;;5071592;28;20439;-62
2021/03/26 09:02:38;;;;;;;8.47;7.73;;;10.90;94.70;;;;;;5071810;28;20496;-62
2021/03/26 09:05:33;;;;;;;7.43;6.77;;;11.10;94.60;;;;;;5075502;28;20877;-62
2021/03/26 09:08:11;;;;;;;8.50;7.40;;;11.30;94.50;;;;;;5075490;28;20869;-62
2021/03/26 09:10:58;;;;;;;8.10;7.40;;;11.40;94.70;;;;;;5075270;28;20851;-62
2021/03/26 09:13:48;;;;;;;8.03;7.23;;;11.60;93.80;;;;;;5075825;28;20943;-64
2021/03/26 09:16:40;;;;;;;8.40;7.33;;;11.90;93.70;;;;;;5075343;28;20409;-62
2021/03/26 09:19:17;;;;;;;8.43;6.83;;;11.90;93.10;;;;;;5074595;28;20500;-62
2021/03/26 09:21:57;;;;;;;8.50;7.70;;;11.80;93.00;;;;;;5074927;28;20813;-62
2021/03/26 09:25:10;;;;;;;6.00;5.50;;;11.80;92.00;;;;;;5075376;28;20508;-63
2021/03/26 09:27:48;;;;;;;7.20;6.50;;;11.60;92.10;;;;;;5074756;28;20421;-62
2021/03/26 09:30:17;;;;;;;7.00;6.40;;;11.20;91.80;;;;;;5075143;28;20397;-62
2021/03/26 09:32:59;;;;;;;8.90;7.00;;;11.20;92.40;;;;;;5074871;28;20871;-63
2021/03/26 09:35:27;;;;;;;6.83;6.13;;;11.10;92.40;;;;;;5075133;28;20413;-62
2021/03/26 09:38:06;;;;;;;13.33;8.43;;;11.00;92.60;;;;;;5074803;28;20922;-62
2021/03/26 09:40:59;;;;;;;6.67;6.10;;;11.10;92.50;;;;;;5074665;28;20963;-63
2021/03/26 09:43:28;;;;;;;6.90;5.50;;;11.30;93.20;;;;;;5074651;28;20496;-63
2021/03/26 09:46:00;;;;;;;7.47;6.77;;;11.60;92.50;;;;;;5074878;28;20405;-63
2021/03/26 09:48:26;;;;;;;7.47;6.50;;;11.70;91.90;;;;;;5074835;28;20852;-62
2021/03/26 09:51:26;;;;;;;6.53;5.93;;;12.10;92.20;;;;;;5074382;28;20440;-63
2021/03/26 09:53:57;;;;;;;9.13;6.53;;;12.70;92.20;;;;;;5074169;28;20286;-63
2021/03/26 09:56:49;;;;;;;7.87;7.10;;;12.70;90.80;;;;;;5074550;28;20407;-63
2021/03/26 09:59:38;;;;;;;7.00;6.30;;;12.60;90.90;;;;;;5073110;28;20433;-63
2021/03/26 10:02:12;;;;;;;6.90;6.20;;;12.70;90.30;;;;;;5074186;28;20460;-63
2021/03/26 10:04:57;;;;;;;8.43;6.80;;;12.90;91.10;;;;;;5074540;28;20411;-63
2021/03/26 10:07:36;;;;;;;7.40;6.70;;;12.90;90.80;;;;;;5074310;28;20411;-62
2021/03/26 10:13:01;;;;;;;7.63;6.83;;;13.60;89.20;;;;;;5073698;28;20436;-63
2021/03/26 10:15:31;;;;;;;8.33;7.73;;;14.00;91.00;;;;;;5072366;28;20938;-63
2021/03/26 10:17:59;;;;;;;11.10;7.60;;;14.40;89.10;;;;;;5074000;28;20408;-63
2021/03/26 10:20:38;;;;;;;6.70;6.13;;;14.40;86.50;;;;;;5073935;28;20910;-63
2021/03/26 10:23:10;;;;;;;8.03;6.00;;;14.20;85.20;;;;;;5073964;28;20968;-63
2021/03/26 10:25:49;;;;;;;8.37;7.33;;;13.90;85.80;;;;;;5074149;28;21038;-63
2021/03/26 10:28:44;;;;;;;7.57;6.97;;;13.70;88.10;;;;;;5074026;28;20393;-63
2021/03/26 10:31:18;;;;;;;9.57;7.37;;;13.50;87.50;;;;;;5073538;28;20444;-63
2021/03/26 10:33:55;;;;;;;8.10;7.30;;;13.00;87.80;;;;;;5073904;28;20789;-63
2021/03/26 10:36:42;;;;;;;8.17;7.33;;;13.30;88.90;;;;;;5073863;28;20783;-63
2021/03/26 10:39:16;;;;;;;8.13;6.17;;;13.50;88.50;;;;;;5073788;28;20397;-63
2021/03/26 10:41:54;;;;;;;7.70;6.90;;;13.40;89.10;;;;;;5073359;28;20452;-63
2021/03/26 10:44:40;;;;;;;10.37;7.57;;;13.80;90.20;;;;;;5073722;28;20421;-63
2021/03/26 10:47:24;;;;;;;8.60;7.90;;;14.20;87.80;;;;;;5073607;28;20493;-63
2021/03/26 10:49:58;;;;;;;6.90;6.20;;;14.10;86.00;;;;;;5073682;28;20775;-63
2021/03/26 10:52:44;;;;;;;8.20;7.00;;;13.90;86.60;;;;;;5073183;28;20409;-63
2021/03/26 10:55:21;;;;;;;7.30;6.50;;;13.40;86.70;;;;;;5073497;28;20406;-63
2021/03/26 10:58:05;;;;;;;6.80;6.20;;;13.20;87.00;;;;;;5073246;28;20489;-63
2021/03/26 11:00:35;;;;;;;6.97;6.40;;;13.30;89.20;;;;;;5073199;28;20394;-63
2021/03/26 11:03:21;;;;;;;5.93;5.43;;;13.10;86.70;;;;;;5073156;28;21027;-63
2021/03/26 11:05:59;;;;;;;5.93;5.33;;;13.50;85.10;;;;;;5073250;28;20410;-63
2021/03/26 11:08:34;;;;;;;6.20;5.60;;;13.50;82.40;;;;;;5073157;28;20397;-63
2021/03/26 11:11:18;;;;;;;5.40;5.00;;;13.90;84.10;;;;;;5072954;28;20411;-63
2021/03/26 11:14:08;;;;;;;5.20;4.90;;;13.80;80.90;;;;;;5073136;28;21011;-63
2021/03/26 11:16:56;;;;;;;5.30;4.90;;;14.00;80.90;;;;;;5073255;28;20417;-63
2021/03/26 11:19:30;;;;;;;5.90;4.97;;;13.60;81.80;;;;;;5072266;28;20455;-63
2021/03/26 11:22:17;;;;;;;5.53;4.90;;;14.10;84.70;;;;;;5072561;28;20983;-63
2021/03/26 11:24:57;;;;;;;4.67;4.37;;;14.20;81.90;;;;;;5072491;28;21224;-63
2021/03/26 11:27:29;;;;;;;3.40;3.20;;;14.70;83.00;;;;;;5072856;28;20405;-63
2021/03/26 11:30:19;;;;;;;4.97;4.57;;;14.60;80.40;;;;;;5072693;28;20394;-63
2021/03/26 11:32:51;;;;;;;4.27;3.97;;;14.10;80.50;;;;;;5072450;28;20429;-63
2021/03/26 11:35:20;;;;;;;5.60;3.70;;;13.90;78.70;;;;;;5072748;28;20769;-63
2021/03/26 11:37:52;;;;;;;4.40;3.63;;;14.40;83.30;;;;;;5072615;28;20410;-63
2021/03/26 11:40:30;;;;;;;4.30;4.00;;;15.50;82.70;;;;;;5072587;28;20406;-63
2021/03/26 11:43:17;;;;;;;4.87;4.50;;;16.50;81.80;;;;;;5072400;28;20482;-63
2021/03/26 11:45:48;;;;;;;3.97;3.77;;;17.00;75.10;;;;;;5072518;28;20452;-63
2021/03/26 11:48:29;;;;;;;4.20;3.97;;;17.20;71.00;;;;;;5072380;28;20394;-63
2021/03/26 11:51:30;;;;;;;4.50;4.20;;;17.60;70.10;;;;;;5072119;28;20398;-63
2021/03/26 11:54:04;;;;;;;4.40;4.10;;;17.40;65.80;;;;;;5072285;28;20917;-63
2021/03/26 11:56:39;;;;;;;4.03;3.73;;;17.30;72.00;;;;;;5072406;28;20765;-64
2021/03/26 11:59:38;;;;;;;4.27;3.43;;;17.30;67.20;;;;;;5072142;28;20805;-63
2021/03/26 12:02:18;;;;;;;3.73;3.47;;;17.00;67.40;;;;;;5071822;28;20453;-63
2021/03/26 12:04:56;;;;;;;3.43;3.23;;;16.50;68.40;;;;;;5072380;28;20494;-64
2021/03/26 12:07:29;;;;;;;3.40;3.30;;;17.00;68.70;;;;;;5072154;28;20742;-64
2021/03/26 12:10:05;;;;;;;5.13;4.27;;;17.40;69.00;;;;;;5072126;28;20436;-63
2021/03/26 12:12:37;;;;;;;3.87;3.67;;;17.60;68.60;;;;;;5071984;28;20426;-63
2021/03/26 12:15:14;;;;;;;3.87;3.53;;;18.30;69.40;;;;;;5072092;28;20412;-63
2021/03/26 12:17:57;;;;;;;4.40;3.83;;;18.60;70.60;;;;;;5072255;28;20912;-63
2021/03/26 12:20:28;;;;;;;4.43;4.13;;;18.80;62.80;;;;;;5072054;28;20413;-64
2021/03/26 12:23:03;;;;;;;4.40;4.10;;;18.40;61.60;;;;;;5071941;28;20465;-63
2021/03/26 12:25:47;;;;;;;3.90;3.60;;;19.10;68.10;;;;;;5072185;28;20764;-64
2021/03/26 12:28:15;;;;;;;3.63;3.33;;;19.10;62.80;;;;;;5071901;28;20401;-64
2021/03/26 12:30:52;;;;;;;3.87;3.47;;;19.60;68.10;;;;;;5071648;28;20456;-64
2021/03/26 12:33:43;;;;;;;4.60;4.27;;;20.40;66.10;;;;;;5071750;28;21136;-64
2021/03/26 12:36:15;;;;;;;3.83;3.53;;;20.70;59.40;;;;;;5071353;28;20489;-64
2021/03/26 12:38:59;;;;;;;3.70;3.40;;;20.50;59.40;;;;;;5071613;28;20405;-64
2021/03/26 12:41:46;;;;;;;4.63;3.47;;;20.80;59.40;;;;;;5071452;28;20492;-64
2021/03/26 12:44:29;;;;;;;3.37;3.10;;;20.10;58.00;;;;;;5071760;28;20418;-64
2021/03/26 12:47:13;;;;;;;3.63;3.30;;;20.00;57.80;;;;;;5071805;28;21023;-64
2021/03/26 12:50:09;;;;;;;5.90;4.00;;;20.30;59.50;;;;;;5071661;28;20409;-64
2021/03/26 12:53:12;;;;;;;3.20;2.90;;;20.50;58.20;;;;;;5071343;28;20409;-64
2021/03/26 12:56:08;;;;;;;3.43;3.23;;;20.20;57.60;;;;;;5071696;28;20406;-64
2021/03/26 12:58:53;;;;;;;3.67;3.37;;;20.00;58.40;;;;;;5071443;28;20425;-64
2021/03/26 13:01:38;;;;;;;3.70;3.50;;;20.20;57.20;;;;;;5071275;28;20434;-64
2021/03/26 13:04:16;;;;;;;4.37;3.97;;;19.50;55.20;;;;;;5071488;28;20448;-64
2021/03/26 13:06:45;;;;;;;3.27;3.07;;;18.90;56.60;;;;;;5071582;28;20842;-64
2021/03/26 13:09:34;;;;;;;4.77;3.70;;;18.80;56.70;;;;;;5071489;28;20442;-64
2021/03/26 13:12:08;;;;;;;4.13;3.70;;;18.40;57.60;;;;;;5071257;28;20408;-64
2021/03/26 13:14:45;;;;;;;3.60;3.30;;;19.30;58.70;;;;;;5071420;28;20401;-64
2021/03/26 13:17:23;;;;;;;3.73;3.30;;;19.10;56.30;;;;;;5071391;28;20860;-64
2021/03/26 13:19:50;;;;;;;4.43;4.13;;;18.00;57.30;;;;;;5071441;28;20432;-64
2021/03/26 13:22:24;;;;;;;4.60;3.73;;;17.10;57.40;;;;;;5070916;28;20539;-64
2021/03/26 13:25:17;;;;;;;6.43;3.33;;;16.70;57.80;;;;;;5071503;28;20463;-64
2021/03/26 13:27:55;;;;;;;5.30;3.63;;;16.40;59.00;;;;;;5071433;28;20408;-64
2021/03/26 13:30:29;;;;;;;4.07;3.87;;;16.10;58.40;;;;;;5071418;28;20747;-64
2021/03/26 13:33:10;;;;;;;4.00;3.43;;;15.90;59.00;;;;;;5071378;28;20442;-64
2021/03/26 13:35:42;;;;;;;4.17;3.53;;;15.70;58.70;;;;;;5071410;28;20484;-64
2021/03/26 13:38:10;;;;;;;3.80;3.60;;;15.30;59.80;;;;;;5071242;28;20455;-64
2021/03/26 13:40:45;;;;;;;4.43;4.03;;;15.30;61.50;;;;;;5071004;28;20406;-64
2021/03/26 13:43:27;;;;;;;3.57;3.27;;;15.50;63.60;;;;;;5071088;28;20486;-64
2021/03/26 13:45:59;;;;;;;3.70;3.50;;;15.50;62.20;;;;;;5071294;28;20413;-64
2021/03/26 13:48:29;;;;;;;3.47;3.17;;;15.90;63.70;;;;;;5072623;28;20398;-64